< < Back
Terminal Aerodrome Forecast


Current Version              Previous Versions:   1  2  3  4  5  6  7  8  9  

Terminal Aerodrome Forecast

673
FTUS44 KBMX 281700
TAFMGM
TAF
KMGM 281720Z 2818/2918 29012G18KT P6SM VCTS SCT025CB BKN070
      TEMPO 2819/2821 BKN025CB
     FM282200 31012G18KT P6SM SCT050
     FM290200 33005KT P6SM SKC
     FM291500 35008KT P6SM SKC=



Latest METAR

584
SAUS80 KWBC 290000 RRB
MTRMGM
METAR KMGM 282353Z 31008KT 10SM CLR 33/17 A2990 RMK AO2 SLP121 T03280172
10361 20328 55000


USA.gov is the U.S. government's official web portal to all federal, state and local government web resources and services.